createdAt,value
2023-07-07T00:01:09.911Z,31.92
2023-07-07T00:03:30.152Z,32.21
2023-07-07T00:05:44.886Z,31.94
2023-07-07T00:07:59.634Z,31.79
2023-07-07T00:10:14.656Z,31.68
2023-07-07T00:12:27.636Z,31.40
2023-07-07T00:14:40.727Z,31.22
2023-07-07T00:16:53.633Z,31.40
2023-07-07T00:19:06.135Z,31.30
2023-07-07T00:21:19.082Z,31.38
2023-07-07T00:23:31.977Z,31.18
2023-07-07T00:25:44.355Z,31.41
2023-07-07T00:27:57.150Z,31.34
2023-07-07T00:30:10.529Z,31.10
2023-07-07T00:32:23.249Z,31.14
2023-07-07T00:34:35.936Z,31.22
2023-07-07T00:36:48.479Z,31.22
2023-07-07T00:39:01.079Z,31.39
2023-07-07T00:41:14.318Z,31.32
2023-07-07T00:43:27.563Z,31.27
2023-07-07T00:45:40.780Z,31.12
2023-07-07T00:48:00.572Z,30.95
2023-07-07T00:50:16.249Z,30.97
2023-07-07T00:52:29.591Z,30.71
2023-07-07T00:54:42.431Z,31.02
2023-07-07T00:56:57.505Z,31.09
2023-07-07T00:59:13.084Z,30.96
2023-07-07T01:01:26.242Z,31.05
2023-07-07T01:03:42.822Z,31.12
2023-07-07T01:05:59.110Z,31.08
2023-07-07T01:08:12.360Z,31.00
2023-07-07T01:10:25.714Z,30.91
2023-07-07T01:12:38.692Z,31.25
2023-07-07T01:14:54.054Z,30.92
2023-07-07T01:17:17.700Z,30.79
2023-07-07T01:19:53.794Z,30.71
2023-07-07T01:22:22.557Z,30.85
2023-07-07T01:24:50.905Z,30.39
2023-07-07T01:27:32.854Z,30.55
2023-07-07T01:30:08.948Z,30.54
2023-07-07T01:32:25.501Z,30.57
2023-07-07T01:34:38.611Z,30.68
2023-07-07T01:36:51.381Z,30.40
2023-07-07T01:39:04.412Z,30.27
2023-07-07T01:41:27.739Z,30.30
2023-07-07T01:43:53.624Z,30.49
2023-07-07T01:46:10.268Z,30.55
2023-07-07T01:48:31.804Z,30.63
2023-07-07T01:50:46.456Z,30.34
2023-07-07T01:53:05.192Z,30.70
2023-07-07T01:55:23.380Z,30.53
2023-07-07T01:57:37.660Z,31.09
2023-07-07T01:59:51.539Z,31.23
2023-07-07T02:02:04.678Z,31.18
2023-07-07T02:04:17.832Z,31.31
2023-07-07T02:06:30.595Z,31.53
2023-07-07T02:08:42.996Z,31.63
2023-07-07T02:10:56.030Z,31.96
2023-07-07T02:13:09.666Z,31.80
2023-07-07T02:15:23.425Z,31.78
2023-07-07T02:17:36.071Z,31.38
2023-07-07T02:19:49.169Z,31.62
2023-07-07T02:22:01.761Z,31.29
2023-07-07T02:24:14.289Z,31.28
2023-07-07T02:26:27.350Z,31.46
2023-07-07T02:28:39.830Z,31.38
2023-07-07T02:30:52.271Z,31.61
2023-07-07T02:33:05.804Z,31.70
2023-07-07T02:35:18.378Z,31.83
2023-07-07T02:37:31.265Z,31.88
2023-07-07T02:39:44.791Z,32.01
2023-07-07T02:41:58.146Z,32.10
2023-07-07T02:44:10.869Z,32.21
2023-07-07T02:46:23.433Z,32.33
2023-07-07T02:48:36.457Z,32.37
2023-07-07T02:50:49.011Z,32.66
2023-07-07T02:53:02.223Z,32.71
2023-07-07T02:55:15.652Z,33.01
2023-07-07T02:57:28.882Z,33.15
2023-07-07T02:59:41.586Z,33.31
2023-07-07T03:01:53.892Z,33.42
2023-07-07T03:04:06.954Z,33.48
2023-07-07T03:06:22.914Z,33.71
2023-07-07T03:08:37.450Z,33.89
2023-07-07T03:10:49.767Z,34.05
2023-07-07T03:13:03.754Z,34.21
2023-07-07T03:15:23.048Z,34.29
2023-07-07T03:17:38.531Z,34.45
2023-07-07T03:19:51.340Z,34.50
2023-07-07T03:22:07.463Z,34.61
2023-07-07T03:24:25.772Z,34.83
2023-07-07T03:26:38.972Z,34.90
2023-07-07T03:28:52.469Z,35.12
2023-07-07T03:31:14.395Z,35.14
2023-07-07T03:33:29.498Z,35.36
2023-07-07T03:35:42.235Z,35.34
2023-07-07T03:37:55.675Z,35.63
2023-07-07T03:40:10.600Z,35.66
2023-07-07T03:42:23.110Z,35.66
2023-07-07T03:44:37.554Z,35.97
2023-07-07T03:46:50.660Z,36.04
2023-07-07T03:49:03.919Z,36.23
2023-07-07T03:51:22.271Z,36.32
2023-07-07T03:53:35.972Z,36.41
2023-07-07T03:55:49.239Z,36.49
2023-07-07T03:58:03.081Z,36.47
2023-07-07T04:00:17.815Z,36.88
2023-07-07T04:02:31.111Z,37.14
2023-07-07T04:04:43.997Z,37.23
2023-07-07T04:06:59.955Z,37.53
2023-07-07T04:09:12.536Z,37.49
2023-07-07T04:11:26.725Z,37.65
2023-07-07T04:13:41.100Z,37.84
2023-07-07T04:16:03.975Z,38.29
2023-07-07T04:18:17.773Z,38.23
2023-07-07T04:20:31.556Z,38.40
2023-07-07T04:22:43.940Z,38.48
2023-07-07T04:25:13.658Z,38.63
2023-07-07T04:27:26.710Z,38.79
2023-07-07T04:29:39.696Z,38.92
2023-07-07T04:31:52.375Z,39.09
2023-07-07T04:34:04.982Z,39.36
2023-07-07T04:36:17.899Z,39.37
2023-07-07T04:38:34.728Z,39.47
2023-07-07T04:40:48.148Z,39.59
2023-07-07T04:43:00.497Z,39.68
2023-07-07T04:45:14.069Z,39.82
2023-07-07T04:47:26.666Z,39.91
2023-07-07T04:49:39.438Z,40.00
2023-07-07T04:51:52.259Z,40.23
2023-07-07T04:54:05.483Z,40.33
2023-07-07T04:56:20.160Z,40.52
2023-07-07T04:58:33.177Z,40.59
2023-07-07T05:00:45.884Z,40.65
2023-07-07T05:02:58.710Z,40.87
2023-07-07T05:05:12.197Z,41.03
2023-07-07T05:07:25.344Z,41.12
2023-07-07T05:09:38.309Z,41.36
2023-07-07T05:11:50.704Z,41.51
2023-07-07T05:14:04.063Z,41.53
2023-07-07T05:16:18.981Z,41.74
2023-07-07T05:18:31.915Z,41.91
2023-07-07T05:20:44.537Z,41.93
2023-07-07T05:22:56.899Z,42.08
2023-07-07T05:25:10.163Z,42.09
2023-07-07T05:27:22.646Z,42.41
2023-07-07T05:29:35.330Z,42.47
2023-07-07T05:31:47.712Z,42.62
2023-07-07T05:34:01.246Z,42.77
2023-07-07T05:36:14.514Z,42.89
2023-07-07T05:38:30.671Z,43.05
2023-07-07T05:40:47.560Z,43.26
2023-07-07T05:43:00.029Z,43.54
2023-07-07T05:45:15.293Z,43.74
2023-07-07T05:47:27.890Z,44.06
2023-07-07T05:49:40.839Z,44.13
2023-07-07T05:51:53.230Z,44.61
2023-07-07T05:54:06.017Z,44.67
2023-07-07T05:56:21.575Z,44.83
2023-07-07T05:58:34.331Z,44.94
2023-07-07T06:00:47.444Z,45.12
2023-07-07T06:03:00.582Z,45.18
2023-07-07T06:05:14.203Z,45.49
2023-07-07T06:07:33.792Z,45.60
2023-07-07T06:09:52.523Z,45.81
2023-07-07T06:12:06.150Z,45.99
2023-07-07T06:14:18.747Z,46.12
2023-07-07T06:16:33.115Z,46.28
2023-07-07T06:18:45.620Z,46.37
2023-07-07T06:21:00.343Z,46.48
2023-07-07T06:23:13.227Z,46.65
2023-07-07T06:25:25.571Z,46.76
2023-07-07T06:27:39.466Z,46.89
2023-07-07T06:29:52.362Z,47.06
2023-07-07T06:32:04.970Z,47.34
2023-07-07T06:34:19.166Z,47.38
2023-07-07T06:36:32.050Z,47.52
2023-07-07T06:38:44.903Z,47.58
2023-07-07T06:40:57.749Z,47.71
2023-07-07T06:43:10.440Z,47.80
2023-07-07T06:45:23.250Z,47.99
2023-07-07T06:47:35.920Z,48.09
2023-07-07T06:49:48.540Z,48.17
2023-07-07T06:52:01.065Z,48.28
2023-07-07T06:54:13.775Z,48.30
2023-07-07T06:56:26.350Z,48.47
2023-07-07T06:58:38.726Z,48.54
2023-07-07T07:00:51.306Z,48.67
2023-07-07T07:03:04.333Z,48.78
2023-07-07T07:05:17.485Z,48.89
2023-07-07T07:07:30.279Z,48.96
2023-07-07T07:09:43.170Z,49.05
2023-07-07T07:11:55.686Z,49.25
2023-07-07T07:14:08.511Z,49.33
2023-07-07T07:16:21.150Z,49.50
2023-07-07T07:18:33.755Z,49.63
2023-07-07T07:20:46.586Z,49.75
2023-07-07T07:22:59.477Z,49.93
2023-07-07T07:25:13.308Z,50.10
2023-07-07T07:27:26.079Z,50.10
2023-07-07T07:29:39.227Z,50.29
2023-07-07T07:31:51.726Z,50.41
2023-07-07T07:34:28.523Z,50.57
2023-07-07T07:36:41.349Z,50.77
2023-07-07T07:38:54.150Z,50.86
2023-07-07T07:41:06.701Z,50.95
2023-07-07T07:43:19.286Z,51.02
2023-07-07T07:45:32.628Z,51.22
2023-07-07T07:47:45.720Z,51.32
2023-07-07T07:49:59.194Z,51.44
2023-07-07T07:52:13.275Z,51.61
2023-07-07T07:54:28.227Z,51.61
2023-07-07T07:56:41.672Z,51.86
2023-07-07T07:58:54.222Z,51.96
2023-07-07T08:01:06.975Z,52.07
2023-07-07T08:03:19.513Z,52.18
2023-07-07T08:05:33.389Z,52.32
2023-07-07T08:07:45.769Z,52.38
2023-07-07T08:09:58.730Z,52.56
2023-07-07T08:12:13.809Z,52.65
2023-07-07T08:14:32.587Z,52.69
2023-07-07T08:16:46.057Z,52.74
2023-07-07T08:18:58.918Z,52.90
2023-07-07T08:21:12.590Z,52.98
2023-07-07T08:23:25.410Z,53.16
2023-07-07T08:25:38.078Z,53.10
2023-07-07T08:30:05.975Z,53.39
2023-07-07T08:32:21.255Z,53.49
2023-07-07T08:34:43.074Z,53.71
2023-07-07T08:37:01.623Z,53.69
2023-07-07T08:39:21.311Z,53.80
2023-07-07T08:41:36.024Z,53.90
2023-07-07T08:43:49.420Z,53.98
2023-07-07T08:46:10.765Z,54.14
2023-07-07T08:48:30.666Z,54.28
2023-07-07T08:50:52.346Z,54.46
2023-07-07T08:53:15.916Z,54.51
2023-07-07T08:55:48.274Z,54.66
2023-07-07T08:58:13.301Z,54.77
2023-07-07T09:00:47.703Z,54.84
2023-07-07T09:03:17.185Z,54.95
2023-07-07T09:05:40.368Z,55.12
2023-07-07T09:08:10.225Z,55.17
2023-07-07T09:10:57.932Z,55.32
2023-07-07T09:13:16.620Z,55.41
2023-07-07T09:15:31.360Z,55.48
2023-07-07T09:17:50.347Z,55.58
2023-07-07T09:20:04.205Z,55.75
2023-07-07T09:22:23.562Z,55.73
2023-07-07T09:24:42.665Z,55.86
2023-07-07T09:26:59.664Z,55.97
2023-07-07T09:29:29.001Z,56.08
2023-07-07T09:31:45.527Z,56.16
2023-07-07T09:34:01.802Z,56.24
2023-07-07T09:36:25.867Z,56.41
2023-07-07T09:39:02.945Z,56.50
2023-07-07T09:41:22.281Z,56.57
2023-07-07T09:43:53.760Z,56.65
2023-07-07T09:46:19.438Z,56.73
2023-07-07T09:48:37.896Z,56.74
2023-07-07T09:50:58.635Z,56.88
2023-07-07T09:53:24.066Z,56.98
2023-07-07T09:55:41.130Z,57.11
2023-07-07T09:58:02.836Z,57.22
2023-07-07T10:00:36.074Z,57.29
2023-07-07T10:02:53.326Z,57.40
2023-07-07T10:05:09.303Z,57.49
2023-07-07T10:07:25.132Z,57.55
2023-07-07T10:09:37.831Z,57.67
2023-07-07T10:14:09.550Z,57.87
2023-07-07T10:16:34.910Z,57.95
2023-07-07T10:18:53.603Z,58.06
2023-07-07T10:21:10.962Z,58.02
2023-07-07T10:23:23.914Z,58.15
2023-07-07T10:25:36.502Z,58.25
2023-07-07T10:27:56.199Z,58.38
2023-07-07T10:30:10.582Z,58.51
2023-07-07T10:32:26.991Z,58.52
2023-07-07T10:34:41.992Z,58.68
2023-07-07T10:36:56.481Z,58.81
2023-07-07T10:39:11.346Z,58.85
2023-07-07T10:41:24.240Z,58.95
2023-07-07T10:43:37.648Z,58.97
2023-07-07T10:45:52.436Z,59.04
2023-07-07T10:48:05.591Z,59.10
2023-07-07T10:50:23.121Z,59.19
2023-07-07T10:55:14.252Z,59.38
2023-07-07T10:57:36.974Z,59.50
2023-07-07T11:00:03.642Z,59.61
2023-07-07T11:02:41.330Z,59.64
2023-07-07T11:05:20.124Z,59.69
2023-07-07T11:07:45.307Z,59.80
2023-07-07T11:12:57.231Z,59.83
2023-07-07T11:15:22.009Z,59.88
2023-07-07T11:17:49.091Z,59.98
2023-07-07T11:20:17.170Z,59.95
2023-07-07T11:22:45.930Z,59.99
2023-07-07T11:25:06.444Z,59.99
2023-07-07T11:27:45.920Z,60.10
2023-07-07T11:30:05.027Z,60.12
2023-07-07T11:32:27.575Z,60.16
2023-07-07T11:34:59.254Z,60.23
2023-07-07T11:37:27.107Z,60.25
2023-07-07T11:39:55.938Z,60.32
2023-07-07T11:42:24.922Z,60.29
2023-07-07T11:44:56.769Z,60.36
2023-07-07T11:47:25.685Z,60.51
2023-07-07T11:50:07.641Z,60.43
2023-07-07T11:52:38.780Z,60.54
2023-07-07T11:55:06.968Z,60.54
2023-07-07T11:57:37.105Z,60.62
2023-07-07T12:00:07.170Z,60.68
2023-07-07T12:02:28.698Z,60.72
2023-07-07T12:04:46.933Z,60.74
2023-07-07T12:07:03.354Z,60.84
2023-07-07T12:09:20.850Z,60.83
2023-07-07T12:11:40.928Z,60.97
2023-07-07T12:14:07.501Z,61.02
2023-07-07T12:16:27.342Z,61.06
2023-07-07T12:18:47.194Z,61.00
2023-07-07T12:21:07.568Z,61.11
2023-07-07T12:23:31.858Z,61.21
2023-07-07T12:25:44.567Z,61.16
2023-07-07T12:27:59.279Z,61.18
2023-07-07T12:30:17.917Z,61.26
2023-07-07T12:32:30.778Z,61.30
2023-07-07T12:34:46.882Z,61.40
2023-07-07T12:37:04.505Z,61.44
2023-07-07T12:39:17.655Z,61.57
2023-07-07T12:41:32.449Z,61.54
2023-07-07T12:43:47.142Z,61.57
2023-07-07T12:46:00.997Z,61.65
2023-07-07T12:48:22.785Z,61.59
2023-07-07T12:50:38.932Z,61.61
2023-07-07T12:52:54.211Z,61.73
2023-07-07T12:55:30.429Z,61.67
2023-07-07T12:58:00.480Z,61.75
2023-07-07T13:00:34.120Z,61.85
2023-07-07T13:03:05.313Z,61.87
2023-07-07T13:05:27.250Z,61.88
2023-07-07T13:07:44.208Z,61.96
2023-07-07T13:09:57.842Z,62.08
2023-07-07T13:12:48.252Z,62.05
2023-07-07T13:15:10.537Z,62.15
2023-07-07T13:17:27.297Z,62.05
2023-07-07T13:19:42.629Z,62.13
2023-07-07T13:21:57.944Z,62.19
2023-07-07T13:24:11.806Z,62.07
2023-07-07T13:26:31.907Z,62.19
2023-07-07T13:28:44.494Z,62.23
2023-07-07T13:30:59.394Z,62.30
2023-07-07T13:33:19.024Z,62.38
2023-07-07T13:35:32.552Z,62.47
2023-07-07T13:37:45.275Z,62.53
2023-07-07T13:39:58.552Z,62.48
2023-07-07T13:42:12.796Z,62.63
2023-07-07T13:44:29.438Z,62.68
2023-07-07T13:46:42.072Z,62.66
2023-07-07T13:48:57.971Z,62.89
2023-07-07T13:51:19.183Z,62.91
2023-07-07T13:53:32.494Z,62.95
2023-07-07T13:55:50.988Z,63.09
2023-07-07T13:58:05.800Z,63.07
2023-07-07T14:00:32.129Z,63.02
2023-07-07T14:02:48.661Z,62.95
2023-07-07T14:05:08.712Z,63.08
2023-07-07T14:07:25.543Z,63.07
2023-07-07T14:09:44.815Z,63.12
2023-07-07T14:12:01.730Z,63.22
2023-07-07T14:14:17.135Z,63.16
2023-07-07T14:16:33.000Z,63.14
2023-07-07T14:18:50.251Z,63.18
2023-07-07T14:21:04.758Z,63.17
2023-07-07T14:23:20.513Z,63.23
2023-07-07T14:25:33.691Z,63.23
2023-07-07T14:27:48.550Z,63.36
2023-07-07T14:30:02.740Z,63.66
2023-07-07T14:32:21.306Z,63.48
2023-07-07T14:34:47.540Z,63.35
2023-07-07T14:37:02.488Z,63.30
2023-07-07T14:39:30.125Z,63.24
2023-07-07T14:41:46.337Z,63.25
2023-07-07T14:43:59.365Z,63.43
2023-07-07T14:46:28.162Z,63.44
2023-07-07T14:48:54.813Z,63.52
2023-07-07T14:51:18.855Z,63.46
2023-07-07T14:53:32.777Z,63.53
2023-07-07T14:55:51.736Z,63.55
2023-07-07T14:58:06.698Z,63.56
2023-07-07T15:00:42.975Z,63.52
2023-07-07T15:02:56.092Z,63.59
2023-07-07T15:05:29.907Z,63.63
2023-07-07T15:07:42.534Z,63.66
2023-07-07T15:09:55.256Z,63.70
2023-07-07T15:12:09.011Z,63.76
2023-07-07T15:14:22.615Z,63.84
2023-07-07T15:16:36.211Z,63.78
2023-07-07T15:18:49.115Z,63.83
2023-07-07T15:21:02.476Z,63.77
2023-07-07T15:23:15.706Z,63.79
2023-07-07T15:25:28.788Z,63.88
2023-07-07T15:27:41.862Z,63.95
2023-07-07T15:29:54.653Z,64.00
2023-07-07T15:32:08.818Z,63.97
2023-07-07T15:34:22.640Z,63.93
2023-07-07T15:36:35.895Z,63.89
2023-07-07T15:39:01.881Z,64.00
2023-07-07T15:41:18.188Z,63.95
2023-07-07T15:43:31.524Z,63.91
2023-07-07T15:45:55.890Z,63.80
2023-07-07T15:48:09.670Z,63.76
2023-07-07T15:50:25.725Z,63.68
2023-07-07T15:52:38.426Z,63.58
2023-07-07T15:54:52.513Z,63.47
2023-07-07T15:57:04.935Z,63.54
2023-07-07T15:59:21.807Z,63.57
2023-07-07T16:01:35.032Z,63.61
2023-07-07T16:03:51.086Z,63.59
2023-07-07T16:06:04.570Z,63.53
2023-07-07T16:08:18.415Z,63.38
2023-07-07T16:10:31.344Z,63.24
2023-07-07T16:12:44.500Z,63.09
2023-07-07T16:14:57.041Z,62.97
2023-07-07T16:17:13.834Z,63.02
2023-07-07T16:19:26.657Z,62.87
2023-07-07T16:21:39.558Z,62.94
2023-07-07T16:23:52.312Z,62.98
2023-07-07T16:26:05.323Z,63.00
2023-07-07T16:28:18.711Z,62.91
2023-07-07T16:30:39.073Z,62.95
2023-07-07T16:32:52.147Z,62.80
2023-07-07T16:35:04.958Z,62.77
2023-07-07T16:37:19.193Z,62.80
2023-07-07T16:39:32.306Z,62.64
2023-07-07T16:41:45.428Z,62.59
2023-07-07T16:43:59.529Z,62.54
2023-07-07T16:46:17.867Z,62.55
2023-07-07T16:48:45.582Z,62.42
2023-07-07T16:50:59.862Z,62.37
2023-07-07T16:53:12.550Z,62.40
2023-07-07T16:55:25.069Z,62.31
2023-07-07T16:57:37.762Z,62.18
2023-07-07T16:59:50.351Z,62.01
2023-07-07T17:02:04.637Z,61.97
2023-07-07T17:04:17.534Z,61.93
2023-07-07T17:06:35.538Z,61.98
2023-07-07T17:08:48.195Z,61.86
2023-07-07T17:11:01.166Z,61.79
2023-07-07T17:13:14.071Z,61.72
2023-07-07T17:15:26.930Z,61.67
2023-07-07T17:17:39.939Z,61.75
2023-07-07T17:19:52.658Z,61.67
2023-07-07T17:22:05.719Z,61.53
2023-07-07T17:24:18.860Z,61.60
2023-07-07T17:26:35.523Z,61.69
2023-07-07T17:28:48.186Z,61.54
2023-07-07T17:31:01.372Z,61.66
2023-07-07T17:33:14.248Z,61.57
2023-07-07T17:35:29.261Z,61.68
2023-07-07T17:37:42.131Z,61.70
2023-07-07T17:39:55.232Z,61.72
2023-07-07T17:42:08.339Z,61.72
2023-07-07T17:44:21.191Z,61.64
2023-07-07T17:46:38.541Z,61.55
2023-07-07T17:48:51.192Z,61.51
2023-07-07T17:51:04.153Z,61.37
2023-07-07T17:53:17.414Z,61.25
2023-07-07T17:55:30.057Z,60.99
2023-07-07T17:57:42.707Z,60.85
2023-07-07T17:59:55.535Z,60.87
2023-07-07T18:02:13.346Z,60.93
2023-07-07T18:04:26.068Z,60.77
2023-07-07T18:06:39.654Z,60.56
2023-07-07T18:08:53.405Z,60.49
2023-07-07T18:11:06.609Z,60.67
2023-07-07T18:13:19.606Z,60.71
2023-07-07T18:15:32.917Z,60.67
2023-07-07T18:17:51.410Z,60.45
2023-07-07T18:21:25.761Z,60.16
2023-07-07T18:23:01.546Z,60.06
2023-07-07T18:25:17.308Z,60.20
2023-07-07T18:27:29.898Z,60.19
2023-07-07T18:29:42.580Z,59.99
2023-07-07T18:31:55.495Z,60.02
2023-07-07T18:34:08.567Z,60.04
2023-07-07T18:38:37.148Z,59.61
2023-07-07T18:40:49.845Z,59.47
2023-07-07T18:43:03.994Z,59.34
2023-07-07T18:45:17.632Z,59.10
2023-07-07T18:47:30.586Z,58.90
2023-07-07T18:49:43.509Z,58.62
2023-07-07T18:51:56.452Z,58.40
2023-07-07T18:54:09.150Z,58.40
2023-07-07T18:56:26.809Z,58.41
2023-07-07T18:58:39.915Z,58.12
2023-07-07T19:00:52.729Z,57.73
2023-07-07T19:03:05.792Z,57.75
2023-07-07T19:05:18.526Z,57.74
2023-07-07T19:07:30.949Z,57.72
2023-07-07T19:09:44.343Z,57.97
2023-07-07T19:11:59.583Z,57.97
2023-07-07T19:14:12.468Z,57.87
2023-07-07T19:16:27.869Z,57.71
2023-07-07T19:18:43.867Z,57.61
2023-07-07T19:21:06.884Z,57.24
2023-07-07T19:23:20.173Z,56.71
2023-07-07T19:25:33.260Z,56.51
2023-07-07T19:27:46.195Z,56.47
2023-07-07T19:29:59.388Z,56.57
2023-07-07T19:32:20.149Z,56.27
2023-07-07T19:34:32.746Z,56.09
2023-07-07T19:36:47.552Z,55.97
2023-07-07T19:39:00.710Z,55.89
2023-07-07T19:41:19.319Z,55.74
2023-07-07T19:43:31.968Z,55.41
2023-07-07T19:45:48.955Z,55.22
2023-07-07T19:48:01.880Z,55.26
2023-07-07T19:50:28.704Z,55.06
2023-07-07T19:52:42.920Z,54.89
2023-07-07T19:54:55.581Z,54.87
2023-07-07T19:57:09.366Z,54.73
2023-07-07T19:59:23.881Z,54.51
2023-07-07T20:01:37.434Z,54.18
2023-07-07T20:03:50.641Z,53.58
2023-07-07T20:06:03.236Z,53.38
2023-07-07T20:08:19.361Z,52.61
2023-07-07T20:10:32.555Z,52.61
2023-07-07T20:12:46.044Z,52.78
2023-07-07T20:15:04.677Z,52.20
2023-07-07T20:17:20.491Z,51.96
2023-07-07T20:19:33.389Z,52.03
2023-07-07T20:21:46.810Z,52.26
2023-07-07T20:24:00.151Z,52.37
2023-07-07T20:26:16.635Z,52.11
2023-07-07T20:28:29.601Z,51.77
2023-07-07T20:30:42.684Z,51.50
2023-07-07T20:32:56.446Z,51.51
2023-07-07T20:35:13.089Z,51.38
2023-07-07T20:37:26.436Z,51.11
2023-07-07T20:39:39.174Z,50.92
2023-07-07T20:41:52.495Z,50.74
2023-07-07T20:44:05.466Z,50.53
2023-07-07T20:46:31.901Z,50.90
2023-07-07T20:48:45.108Z,51.02
2023-07-07T20:50:59.804Z,51.11
2023-07-07T20:53:14.754Z,50.79
2023-07-07T20:55:27.807Z,50.74
2023-07-07T20:57:40.634Z,50.91
2023-07-07T20:59:53.736Z,50.55
2023-07-07T21:02:12.746Z,50.51
2023-07-07T21:04:25.384Z,49.88
2023-07-07T21:06:38.598Z,49.53
2023-07-07T21:08:51.799Z,49.67
2023-07-07T21:11:04.558Z,49.26
2023-07-07T21:13:24.185Z,49.06
2023-07-07T21:15:37.429Z,48.86
2023-07-07T21:17:50.221Z,48.65
2023-07-07T21:20:02.666Z,48.18
2023-07-07T21:22:17.921Z,47.90
2023-07-07T21:24:31.099Z,47.66
2023-07-07T21:26:44.174Z,47.95
2023-07-07T21:28:57.814Z,47.82
2023-07-07T21:31:17.673Z,47.89
2023-07-07T21:33:31.245Z,48.05
2023-07-07T21:35:45.500Z,48.30
2023-07-07T21:37:58.386Z,48.10
2023-07-07T21:40:19.512Z,48.37
2023-07-07T21:42:32.741Z,48.15
2023-07-07T21:44:46.084Z,48.22
2023-07-07T21:46:59.247Z,47.93
2023-07-07T21:49:12.632Z,48.32
2023-07-07T21:51:25.356Z,48.83
2023-07-07T21:53:38.382Z,49.08
2023-07-07T21:55:51.017Z,48.92
2023-07-07T21:58:03.912Z,48.88
2023-07-07T22:00:26.073Z,48.21
2023-07-07T22:02:38.739Z,48.20
2023-07-07T22:04:51.529Z,48.40
2023-07-07T22:07:04.128Z,48.07
2023-07-07T22:09:20.802Z,47.54
2023-07-07T22:11:33.757Z,47.11
2023-07-07T22:13:46.529Z,46.83
2023-07-07T22:15:59.725Z,46.92
2023-07-07T22:18:18.714Z,47.09
2023-07-07T22:20:43.789Z,47.23
2023-07-07T22:22:56.651Z,47.40
2023-07-07T22:25:10.164Z,47.12
2023-07-07T22:27:23.100Z,47.06
2023-07-07T22:29:35.710Z,46.84
2023-07-07T22:31:48.615Z,47.07
2023-07-07T22:34:01.871Z,47.18
2023-07-07T22:36:20.667Z,47.23
2023-07-07T22:38:34.500Z,46.89
2023-07-07T22:40:49.611Z,46.39
2023-07-07T22:43:02.315Z,46.06
2023-07-07T22:45:16.778Z,46.01
2023-07-07T22:47:29.395Z,45.98
2023-07-07T22:49:42.901Z,46.41
2023-07-07T22:51:55.710Z,46.16
2023-07-07T22:54:15.806Z,45.71
2023-07-07T22:56:39.962Z,45.56
2023-07-07T22:58:52.560Z,45.64
2023-07-07T23:01:06.156Z,45.80
2023-07-07T23:03:19.521Z,45.86
2023-07-07T23:05:39.032Z,45.52
2023-07-07T23:07:52.313Z,45.54
2023-07-07T23:10:05.894Z,45.37
2023-07-07T23:12:24.539Z,45.49
2023-07-07T23:14:37.004Z,45.23
2023-07-07T23:16:50.142Z,44.86
2023-07-07T23:19:02.965Z,44.58
2023-07-07T23:21:20.981Z,44.49
2023-07-07T23:23:35.368Z,44.54
2023-07-07T23:25:59.314Z,44.75
2023-07-07T23:28:17.256Z,45.01
2023-07-07T23:30:39.572Z,44.72
2023-07-07T23:32:53.945Z,44.76
2023-07-07T23:35:06.550Z,44.69
2023-07-07T23:37:29.580Z,44.73
2023-07-07T23:39:53.334Z,44.89
2023-07-07T23:42:08.524Z,44.91
2023-07-07T23:44:20.990Z,44.76
2023-07-07T23:46:33.866Z,44.75
2023-07-07T23:48:46.714Z,44.89
2023-07-07T23:51:02.471Z,44.31
2023-07-07T23:53:16.254Z,44.35
2023-07-07T23:55:31.779Z,44.29
2023-07-07T23:57:44.705Z,44.16
2023-07-07T23:59:57.264Z,44.38
